EXS39T EGCC-EGCC
Flight info
| Callsign | EXS39T |
|---|---|
| Flight time | 0h 15m |
| Altitude | 8000 |
| Route | SETEL ROSUN |
| Aircraft | B738/M-SDE2E3FGHIRWXY/LB1 |
Departure
| Time | 2026-05-07 12:11 |
|---|---|
| Airport | Manchester Airport (EGCC) |
Arrival
| Time | 2026-05-07 12:26 |
|---|---|
| Airport | Manchester Airport (EGCC) |
| Time | Latitude | Longitude | Altitude | Speed | Heading |
|---|---|---|---|---|---|
| 2026-05-07 12:03 | 54.17299 | -2.04974 | 16754 ft | 303 kts | 253° |
| 2026-05-07 12:03 | 54.16578 | -2.08326 | 16179 ft | 299 kts | 246° |
| 2026-05-07 12:03 | 54.15754 | -2.11582 | 15567 ft | 298 kts | 244° |
| 2026-05-07 12:04 | 54.14660 | -2.14554 | 15087 ft | 292 kts | 231° |
| 2026-05-07 12:04 | 54.13409 | -2.17210 | 14762 ft | 284 kts | 230° |
| 2026-05-07 12:04 | 54.12162 | -2.19790 | 14443 ft | 280 kts | 230° |
| 2026-05-07 12:04 | 54.10925 | -2.22389 | 14140 ft | 286 kts | 230° |
| 2026-05-07 12:05 | 54.09681 | -2.25052 | 13826 ft | 288 kts | 231° |
| 2026-05-07 12:05 | 54.08444 | -2.27737 | 13479 ft | 287 kts | 231° |
| 2026-05-07 12:05 | 54.07243 | -2.30369 | 13119 ft | 284 kts | 231° |
| 2026-05-07 12:05 | 54.06014 | -2.33071 | 12596 ft | 296 kts | 231° |
| 2026-05-07 12:06 | 54.04724 | -2.35908 | 12386 ft | 307 kts | 231° |
| 2026-05-07 12:06 | 54.03426 | -2.38764 | 12226 ft | 301 kts | 231° |
| 2026-05-07 12:06 | 54.01988 | -2.41237 | 12055 ft | 289 kts | 212° |
| 2026-05-07 12:06 | 54.00170 | -2.42548 | 11847 ft | 283 kts | 194° |
| 2026-05-07 12:07 | 53.98224 | -2.42842 | 11568 ft | 281 kts | 178° |
| 2026-05-07 12:07 | 53.96284 | -2.42445 | 11241 ft | 280 kts | 173° |
| 2026-05-07 12:07 | 53.94367 | -2.41941 | 10927 ft | 278 kts | 173° |
| 2026-05-07 12:07 | 53.92458 | -2.41425 | 10612 ft | 277 kts | 173° |
| 2026-05-07 12:08 | 53.90563 | -2.40918 | 10302 ft | 275 kts | 173° |
| 2026-05-07 12:08 | 53.88692 | -2.40426 | 10162 ft | 267 kts | 173° |
| 2026-05-07 12:08 | 53.86887 | -2.39957 | 10012 ft | 260 kts | 174° |
| 2026-05-07 12:08 | 53.85101 | -2.39500 | 9691 ft | 259 kts | 174° |
| 2026-05-07 12:09 | 53.83327 | -2.39049 | 9411 ft | 256 kts | 174° |
| 2026-05-07 12:09 | 53.81593 | -2.38611 | 9142 ft | 254 kts | 174° |
| 2026-05-07 12:09 | 53.79848 | -2.38171 | 8805 ft | 254 kts | 174° |
| 2026-05-07 12:09 | 53.78095 | -2.37731 | 8476 ft | 254 kts | 174° |
| 2026-05-07 12:10 | 53.76352 | -2.37293 | 8188 ft | 252 kts | 174° |
| 2026-05-07 12:10 | 53.74629 | -2.36860 | 7952 ft | 245 kts | 174° |
| 2026-05-07 12:10 | 53.72989 | -2.36447 | 7803 ft | 231 kts | 174° |
| 2026-05-07 12:10 | 53.71431 | -2.36057 | 7589 ft | 222 kts | 173° |
| 2026-05-07 12:11 | 53.69934 | -2.35682 | 7367 ft | 214 kts | 174° |
| 2026-05-07 12:11 | 53.68468 | -2.35315 | 7185 ft | 211 kts | 174° |
| 2026-05-07 12:11 | 53.67000 | -2.34951 | 7093 ft | 215 kts | 174° |
| 2026-05-07 12:11 | 53.65541 | -2.35125 | 7048 ft | 212 kts | 203° |
| 2026-05-07 12:12 | 53.64358 | -2.36544 | 7046 ft | 210 kts | 229° |
| 2026-05-07 12:12 | 53.63711 | -2.38729 | 7041 ft | 211 kts | 257° |
| 2026-05-07 12:12 | 53.63779 | -2.41162 | 7047 ft | 215 kts | 285° |
| 2026-05-07 12:12 | 53.64588 | -2.43302 | 7045 ft | 222 kts | 315° |
| 2026-05-07 12:13 | 53.65954 | -2.44520 | 7042 ft | 231 kts | 347° |
| 2026-05-07 12:13 | 53.67563 | -2.44320 | 7056 ft | 239 kts | 21° |
| 2026-05-07 12:13 | 53.68875 | -2.42656 | 7023 ft | 238 kts | 57° |
| 2026-05-07 12:13 | 53.69430 | -2.40069 | 6899 ft | 236 kts | 91° |
| 2026-05-07 12:14 | 53.69225 | -2.37361 | 6800 ft | 231 kts | 106° |
| 2026-05-07 12:14 | 53.68806 | -2.34761 | 6673 ft | 228 kts | 110° |
| 2026-05-07 12:14 | 53.68359 | -2.32216 | 6540 ft | 224 kts | 110° |
| 2026-05-07 12:14 | 53.67913 | -2.29702 | 6412 ft | 223 kts | 110° |
| 2026-05-07 12:15 | 53.67472 | -2.27199 | 6278 ft | 223 kts | 110° |
| 2026-05-07 12:15 | 53.67036 | -2.24683 | 6148 ft | 223 kts | 109° |
| 2026-05-07 12:15 | 53.66596 | -2.22170 | 6023 ft | 223 kts | 109° |
| 2026-05-07 12:15 | 53.66152 | -2.19662 | 5883 ft | 223 kts | 110° |
| 2026-05-07 12:16 | 53.65718 | -2.17186 | 5757 ft | 223 kts | 109° |
| 2026-05-07 12:16 | 53.65283 | -2.14684 | 5626 ft | 222 kts | 110° |
| 2026-05-07 12:16 | 53.64851 | -2.12182 | 5505 ft | 222 kts | 109° |
| 2026-05-07 12:16 | 53.64418 | -2.09689 | 5370 ft | 222 kts | 110° |
| 2026-05-07 12:17 | 53.63984 | -2.07196 | 5236 ft | 221 kts | 109° |
| 2026-05-07 12:17 | 53.63544 | -2.04712 | 5102 ft | 221 kts | 110° |
| 2026-05-07 12:17 | 53.63101 | -2.02232 | 4974 ft | 220 kts | 110° |
| 2026-05-07 12:17 | 53.62662 | -1.99762 | 4832 ft | 218 kts | 110° |
| 2026-05-07 12:18 | 53.62236 | -1.97336 | 4674 ft | 213 kts | 110° |
| 2026-05-07 12:18 | 53.61835 | -1.95021 | 4433 ft | 203 kts | 112° |
| 2026-05-07 12:18 | 53.61097 | -1.93129 | 4118 ft | 189 kts | 148° |
| 2026-05-07 12:18 | 53.59911 | -1.92515 | 3859 ft | 177 kts | 187° |
| 2026-05-07 12:19 | 53.58751 | -1.93047 | 3625 ft | 172 kts | 200° |
| 2026-05-07 12:19 | 53.57610 | -1.93773 | 3556 ft | 176 kts | 200° |
| 2026-05-07 12:19 | 53.56491 | -1.94522 | 3497 ft | 169 kts | 201° |
| 2026-05-07 12:19 | 53.55396 | -1.95246 | 3493 ft | 170 kts | 200° |
| 2026-05-07 12:20 | 53.54278 | -1.95990 | 3511 ft | 177 kts | 201° |
| 2026-05-07 12:20 | 53.53126 | -1.96761 | 3500 ft | 177 kts | 201° |
| 2026-05-07 12:20 | 53.51983 | -1.97525 | 3482 ft | 175 kts | 201° |
| 2026-05-07 12:20 | 53.50879 | -1.98257 | 3503 ft | 172 kts | 201° |
| 2026-05-07 12:21 | 53.49785 | -1.98985 | 3485 ft | 164 kts | 201° |
| 2026-05-07 12:21 | 53.48778 | -1.99764 | 3482 ft | 156 kts | 218° |
| 2026-05-07 12:21 | 53.48091 | -2.01182 | 3516 ft | 158 kts | 228° |
| 2026-05-07 12:21 | 53.47376 | -2.02602 | 3508 ft | 159 kts | 229° |
| 2026-05-07 12:22 | 53.46693 | -2.04049 | 3475 ft | 158 kts | 230° |
| 2026-05-07 12:22 | 53.46005 | -2.05494 | 3378 ft | 161 kts | 229° |
| 2026-05-07 12:22 | 53.45305 | -2.06950 | 3195 ft | 158 kts | 229° |
| 2026-05-07 12:22 | 53.44621 | -2.08367 | 2965 ft | 155 kts | 228° |
| 2026-05-07 12:23 | 53.43949 | -2.09754 | 2764 ft | 151 kts | 227° |
| 2026-05-07 12:23 | 53.43282 | -2.11130 | 2547 ft | 153 kts | 227° |
| 2026-05-07 12:23 | 53.42608 | -2.12522 | 2348 ft | 156 kts | 228° |
| 2026-05-07 12:23 | 53.41938 | -2.13909 | 2137 ft | 148 kts | 227° |
| 2026-05-07 12:24 | 53.41319 | -2.15192 | 1960 ft | 135 kts | 226° |
| 2026-05-07 12:24 | 53.40748 | -2.16373 | 1769 ft | 126 kts | 226° |
| 2026-05-07 12:24 | 53.40206 | -2.17493 | 1607 ft | 126 kts | 226° |
| 2026-05-07 12:24 | 53.39656 | -2.18631 | 1421 ft | 125 kts | 225° |
| 2026-05-07 12:25 | 53.39115 | -2.19746 | 1233 ft | 124 kts | 227° |
| 2026-05-07 12:25 | 53.38558 | -2.20903 | 1066 ft | 128 kts | 227° |
| 2026-05-07 12:25 | 53.37989 | -2.22046 | 883 ft | 129 kts | 230° |
| 2026-05-07 12:25 | 53.37427 | -2.23239 | 681 ft | 134 kts | 229° |
| 2026-05-07 12:26 | 53.36851 | -2.24465 | 483 ft | 134 kts | 228° |
| 2026-05-07 12:26 | 53.36256 | -2.25655 | 297 ft | 132 kts | 229° |
| 2026-05-07 12:26 | 53.35716 | -2.26781 | 236 ft | 107 kts | 230° |
| 2026-05-07 12:26 | 53.35465 | -2.27318 | 244 ft | 27 kts | 245° |
| 2026-05-07 12:27 | 53.35458 | -2.27609 | 246 ft | 26 kts | 269° |
| 2026-05-07 12:27 | 53.35458 | -2.27836 | 249 ft | 13 kts | 271° |
| 2026-05-07 12:27 | 53.35528 | -2.27913 | 250 ft | 15 kts | 5° |
| 2026-05-07 12:27 | 53.35654 | -2.27888 | 250 ft | 21 kts | 8° |
| 2026-05-07 12:28 | 53.35804 | -2.27867 | 249 ft | 18 kts | 6° |
| 2026-05-07 12:28 | 53.35836 | -2.27785 | 248 ft | 11 kts | 132° |
| 2026-05-07 12:28 | 53.35804 | -2.27673 | 247 ft | 8 kts | 66° |
| 2026-05-07 12:28 | 53.35844 | -2.27653 | 246 ft | 8 kts | 6° |
| 2026-05-07 12:29 | 53.35889 | -2.27597 | 245 ft | 8 kts | 82° |
| 2026-05-07 12:29 | 53.35885 | -2.27552 | 245 ft | 3 kts | 100° |
| 2026-05-07 12:29 | 53.35884 | -2.27529 | 245 ft | 0 kts | 96° |